createdAt,value
2023-07-17T00:00:50.662Z,31.17
2023-07-17T00:01:50.767Z,31.17
2023-07-17T00:02:50.708Z,31.14
2023-07-17T00:03:50.764Z,31.16
2023-07-17T00:04:50.822Z,31.16
2023-07-17T00:05:50.872Z,31.17
2023-07-17T00:06:50.939Z,31.17
2023-07-17T00:07:51.001Z,31.14
2023-07-17T00:08:51.051Z,31.16
2023-07-17T00:09:51.124Z,31.16
2023-07-17T00:10:51.186Z,31.12
2023-07-17T00:11:51.232Z,31.14
2023-07-17T00:12:51.281Z,31.12
2023-07-17T00:13:51.344Z,31.13
2023-07-17T00:14:51.357Z,31.13
2023-07-17T00:15:51.372Z,31.12
2023-07-17T00:16:51.398Z,31.13
2023-07-17T00:17:51.404Z,31.10
2023-07-17T00:18:51.385Z,31.12
2023-07-17T00:19:51.384Z,31.07
2023-07-17T00:20:51.392Z,31.07
2023-07-17T00:21:51.387Z,31.07
2023-07-17T00:22:51.459Z,31.09
2023-07-17T00:23:51.399Z,31.07
2023-07-17T00:24:51.378Z,31.06
2023-07-17T00:25:51.382Z,31.09
2023-07-17T00:26:51.389Z,31.09
2023-07-17T00:27:51.378Z,31.06
2023-07-17T00:28:51.379Z,31.06
2023-07-17T00:29:51.434Z,31.04
2023-07-17T00:30:51.452Z,31.06
2023-07-17T00:31:51.436Z,31.04
2023-07-17T00:32:51.495Z,31.04
2023-07-17T00:33:51.478Z,31.03
2023-07-17T00:34:51.506Z,31.03
2023-07-17T00:35:51.536Z,31.04
2023-07-17T00:36:51.592Z,31.03
2023-07-17T00:37:51.593Z,31.01
2023-07-17T00:38:51.612Z,31.01
2023-07-17T00:39:51.593Z,31.01
2023-07-17T00:40:51.635Z,31.03
2023-07-17T00:41:51.602Z,31.00
2023-07-17T00:42:51.620Z,31.01
2023-07-17T00:43:51.637Z,31.01
2023-07-17T00:44:51.637Z,31.01
2023-07-17T00:45:51.765Z,31.03
2023-07-17T00:46:51.679Z,31.03
2023-07-17T00:47:51.687Z,31.01
2023-07-17T00:48:51.627Z,31.01
2023-07-17T00:49:51.629Z,31.03
2023-07-17T00:50:51.615Z,31.03
2023-07-17T00:51:51.629Z,31.03
2023-07-17T00:52:51.637Z,31.00
2023-07-17T00:53:51.676Z,31.00
2023-07-17T00:54:51.666Z,31.01
2023-07-17T00:55:51.659Z,31.00
2023-07-17T00:56:51.662Z,30.99
2023-07-17T00:57:51.667Z,31.00
2023-07-17T00:58:51.668Z,30.99
2023-07-17T00:59:51.688Z,30.99
2023-07-17T01:00:51.742Z,30.97
2023-07-17T01:01:51.755Z,30.99
2023-07-17T01:02:51.923Z,31.01
2023-07-17T01:03:51.688Z,30.99
2023-07-17T01:04:51.734Z,30.99
2023-07-17T01:05:51.748Z,30.97
2023-07-17T01:06:51.759Z,30.97
2023-07-17T01:07:51.784Z,30.99
2023-07-17T01:08:51.815Z,30.97
2023-07-17T01:09:51.844Z,30.97
2023-07-17T01:10:51.857Z,30.97
2023-07-17T01:11:51.892Z,31.00
2023-07-17T01:12:51.903Z,30.97
2023-07-17T01:13:51.926Z,30.96
2023-07-17T01:14:51.955Z,30.97
2023-07-17T01:15:51.967Z,30.97
2023-07-17T01:16:52.014Z,30.96
2023-07-17T01:17:52.102Z,30.93
2023-07-17T01:18:52.044Z,30.94
2023-07-17T01:19:52.075Z,30.97
2023-07-17T01:20:52.085Z,30.97
2023-07-17T01:21:52.094Z,30.93
2023-07-17T01:22:52.106Z,30.96
2023-07-17T01:23:52.108Z,30.96
2023-07-17T01:24:52.124Z,30.93
2023-07-17T01:25:52.156Z,30.94
2023-07-17T01:26:52.160Z,30.94
2023-07-17T01:27:52.192Z,30.94
2023-07-17T01:28:52.203Z,30.94
2023-07-17T01:29:52.224Z,30.94
2023-07-17T01:30:52.287Z,30.93
2023-07-17T01:31:52.273Z,30.94
2023-07-17T01:32:52.324Z,30.94
2023-07-17T01:33:52.325Z,30.93
2023-07-17T01:34:52.330Z,30.94
2023-07-17T01:35:52.369Z,30.94
2023-07-17T01:36:52.368Z,30.94
2023-07-17T01:37:52.365Z,30.96
2023-07-17T01:38:52.353Z,30.96
2023-07-17T01:39:52.371Z,30.93
2023-07-17T01:40:52.386Z,30.93
2023-07-17T01:41:52.377Z,30.93
2023-07-17T01:42:52.381Z,30.92
2023-07-17T01:43:52.393Z,30.93
2023-07-17T01:44:52.400Z,30.92
2023-07-17T01:45:52.404Z,30.90
2023-07-17T01:46:52.440Z,30.92
2023-07-17T01:47:52.500Z,30.92
2023-07-17T01:48:52.437Z,30.93
2023-07-17T01:49:52.466Z,30.92
2023-07-17T01:50:52.452Z,30.93
2023-07-17T01:51:52.444Z,30.92
2023-07-17T01:52:52.451Z,30.92
2023-07-17T01:53:52.459Z,30.90
2023-07-17T01:54:52.459Z,30.89
2023-07-17T01:55:52.471Z,30.90
2023-07-17T01:56:52.484Z,30.92
2023-07-17T01:57:52.487Z,30.92
2023-07-17T01:58:52.512Z,30.89
2023-07-17T01:59:52.508Z,30.89
2023-07-17T02:00:52.505Z,30.90
2023-07-17T02:01:52.534Z,30.90
2023-07-17T02:02:52.624Z,30.90
2023-07-17T02:03:52.523Z,30.89
2023-07-17T02:04:52.539Z,30.92
2023-07-17T02:05:52.570Z,30.90
2023-07-17T02:06:52.536Z,30.89
2023-07-17T02:07:52.545Z,30.89
2023-07-17T02:08:52.558Z,30.90
2023-07-17T02:09:52.574Z,30.87
2023-07-17T02:10:52.576Z,30.90
2023-07-17T02:11:52.589Z,30.90
2023-07-17T02:12:52.608Z,30.87
2023-07-17T02:13:53.165Z,30.87
2023-07-17T02:14:52.623Z,30.87
2023-07-17T02:15:52.610Z,30.87
2023-07-17T02:16:52.665Z,30.86
2023-07-17T02:17:52.702Z,30.89
2023-07-17T02:18:52.645Z,30.89
2023-07-17T02:19:52.637Z,30.87
2023-07-17T02:20:52.657Z,30.90
2023-07-17T02:21:52.776Z,30.87
2023-07-17T02:22:52.683Z,30.87
2023-07-17T02:23:52.704Z,30.85
2023-07-17T02:24:52.680Z,30.85
2023-07-17T02:25:52.689Z,30.87
2023-07-17T02:26:52.695Z,30.86
2023-07-17T02:27:52.707Z,30.87
2023-07-17T02:28:52.714Z,30.87
2023-07-17T02:29:52.725Z,30.89
2023-07-17T02:30:52.726Z,30.85
2023-07-17T02:31:52.772Z,30.86
2023-07-17T02:32:52.867Z,30.85
2023-07-17T02:33:52.735Z,30.83
2023-07-17T02:34:52.777Z,30.85
2023-07-17T02:35:52.761Z,30.85
2023-07-17T02:36:52.760Z,30.85
2023-07-17T02:37:52.793Z,30.85
2023-07-17T02:38:52.779Z,30.85
2023-07-17T02:39:52.821Z,30.87
2023-07-17T02:40:52.819Z,30.83
2023-07-17T02:41:52.821Z,30.83
2023-07-17T02:42:52.838Z,30.86
2023-07-17T02:43:52.830Z,30.85
2023-07-17T02:44:52.836Z,30.85
2023-07-17T02:45:52.856Z,30.85
2023-07-17T02:46:52.861Z,30.83
2023-07-17T02:47:52.903Z,30.83
2023-07-17T02:48:52.887Z,30.83
2023-07-17T02:49:52.893Z,30.83
2023-07-17T02:50:52.902Z,30.82
2023-07-17T02:51:52.904Z,30.81
2023-07-17T02:52:52.926Z,30.82
2023-07-17T02:53:52.970Z,30.82
2023-07-17T02:54:52.950Z,30.82
2023-07-17T02:55:52.953Z,30.81
2023-07-17T02:56:52.959Z,30.83
2023-07-17T02:57:52.971Z,30.82
2023-07-17T02:58:52.979Z,30.81
2023-07-17T02:59:52.990Z,30.83
2023-07-17T03:00:53.069Z,30.82
2023-07-17T03:01:53.158Z,30.81
2023-07-17T03:02:53.085Z,30.81
2023-07-17T03:03:53.034Z,30.82
2023-07-17T03:04:53.051Z,30.82
2023-07-17T03:05:53.203Z,30.82
2023-07-17T03:06:53.082Z,30.81
2023-07-17T03:07:53.098Z,30.78
2023-07-17T03:08:53.114Z,30.82
2023-07-17T03:09:53.157Z,30.81
2023-07-17T03:10:53.139Z,30.81
2023-07-17T03:11:53.159Z,30.81
2023-07-17T03:12:53.198Z,30.81
2023-07-17T03:13:53.169Z,30.81
2023-07-17T03:14:53.199Z,30.82
2023-07-17T03:15:53.233Z,30.82
2023-07-17T03:16:53.221Z,30.81
2023-07-17T03:17:53.249Z,30.82
2023-07-17T03:18:53.242Z,30.79
2023-07-17T03:19:53.263Z,30.79
2023-07-17T03:20:53.281Z,30.81
2023-07-17T03:21:53.280Z,30.81
2023-07-17T03:22:53.300Z,30.79
2023-07-17T03:23:53.318Z,30.79
2023-07-17T03:24:53.326Z,30.81
2023-07-17T03:25:53.363Z,30.78
2023-07-17T03:26:53.359Z,30.81
2023-07-17T03:27:53.384Z,30.79
2023-07-17T03:28:53.406Z,30.79
2023-07-17T03:29:53.404Z,30.79
2023-07-17T03:30:53.417Z,30.78
2023-07-17T03:31:53.451Z,30.78
2023-07-17T03:32:53.504Z,30.78
2023-07-17T03:33:53.520Z,30.78
2023-07-17T03:34:53.492Z,30.78
2023-07-17T03:35:53.496Z,30.79
2023-07-17T03:36:53.510Z,30.78
2023-07-17T03:37:53.526Z,30.78
2023-07-17T03:38:53.548Z,30.76
2023-07-17T03:39:53.566Z,30.76
2023-07-17T03:40:53.591Z,30.76
2023-07-17T03:41:53.634Z,30.78
2023-07-17T03:42:53.624Z,30.76
2023-07-17T03:43:53.640Z,30.76
2023-07-17T03:44:53.656Z,30.76
2023-07-17T03:45:53.696Z,30.76
2023-07-17T03:46:53.797Z,30.75
2023-07-17T03:47:53.786Z,30.76
2023-07-17T03:48:53.724Z,30.76
2023-07-17T03:49:53.754Z,30.76
2023-07-17T03:50:53.765Z,30.75
2023-07-17T03:51:53.781Z,30.73
2023-07-17T03:52:53.809Z,30.78
2023-07-17T03:53:53.822Z,30.76
2023-07-17T03:54:53.832Z,30.73
2023-07-17T03:55:53.852Z,30.73
2023-07-17T03:56:53.868Z,30.73
2023-07-17T03:57:53.912Z,30.76
2023-07-17T03:58:53.908Z,30.73
2023-07-17T03:59:53.924Z,30.75
2023-07-17T04:00:53.965Z,30.73
2023-07-17T04:01:53.968Z,30.78
2023-07-17T04:02:54.041Z,30.75
2023-07-17T04:03:54.075Z,30.76
2023-07-17T04:04:54.074Z,30.78
2023-07-17T04:05:54.060Z,30.75
2023-07-17T04:06:54.078Z,30.73
2023-07-17T04:07:54.104Z,30.76
2023-07-17T04:08:54.125Z,30.78
2023-07-17T04:09:54.149Z,30.76
2023-07-17T04:10:54.180Z,30.78
2023-07-17T04:11:54.218Z,30.76
2023-07-17T04:12:54.222Z,30.75
2023-07-17T04:13:54.288Z,30.76
2023-07-17T04:14:54.266Z,30.76
2023-07-17T04:15:54.305Z,30.76
2023-07-17T04:16:54.350Z,30.76
2023-07-17T04:17:54.395Z,30.75
2023-07-17T04:18:54.383Z,30.75
2023-07-17T04:19:54.371Z,30.73
2023-07-17T04:20:54.394Z,30.75
2023-07-17T04:21:54.416Z,30.75
2023-07-17T04:22:54.475Z,30.73
2023-07-17T04:23:54.514Z,30.75
2023-07-17T04:24:54.486Z,30.73
2023-07-17T04:25:54.497Z,30.72
2023-07-17T04:26:54.583Z,30.73
2023-07-17T04:27:54.541Z,30.75
2023-07-17T04:28:54.574Z,30.72
2023-07-17T04:29:54.608Z,30.73
2023-07-17T04:30:54.652Z,30.73
2023-07-17T04:31:54.623Z,30.73
2023-07-17T04:32:54.662Z,30.73
2023-07-17T04:33:54.657Z,30.72
2023-07-17T04:34:54.681Z,30.71
2023-07-17T04:35:54.700Z,30.75
2023-07-17T04:36:54.724Z,30.71
2023-07-17T04:37:54.747Z,30.73
2023-07-17T04:38:54.748Z,30.75
2023-07-17T04:39:54.767Z,30.73
2023-07-17T04:40:54.803Z,30.73
2023-07-17T04:41:54.810Z,30.75
2023-07-17T04:42:54.833Z,30.73
2023-07-17T04:43:54.852Z,30.72
2023-07-17T04:44:54.883Z,30.75
2023-07-17T04:45:54.906Z,30.73
2023-07-17T04:46:55.028Z,30.75
2023-07-17T04:47:55.081Z,30.73
2023-07-17T04:48:54.932Z,30.73
2023-07-17T04:49:54.962Z,30.75
2023-07-17T04:50:55.007Z,30.75
2023-07-17T04:51:55.008Z,30.73
2023-07-17T04:52:55.014Z,30.75
2023-07-17T04:53:55.048Z,30.75
2023-07-17T04:54:55.070Z,30.75
2023-07-17T04:55:55.100Z,30.73
2023-07-17T04:56:55.121Z,30.75
2023-07-17T04:57:55.145Z,30.75
2023-07-17T04:58:55.165Z,30.76
2023-07-17T04:59:55.185Z,30.73
2023-07-17T05:00:55.266Z,30.73
2023-07-17T05:01:55.255Z,30.76
2023-07-17T05:02:55.374Z,30.72
2023-07-17T05:03:55.346Z,30.76
2023-07-17T05:04:55.309Z,30.73
2023-07-17T05:05:55.338Z,30.75
2023-07-17T05:06:55.361Z,30.72
2023-07-17T05:07:55.400Z,30.72
2023-07-17T05:08:55.397Z,30.73
2023-07-17T05:09:55.418Z,30.73
2023-07-17T05:10:55.517Z,30.73
2023-07-17T05:11:55.477Z,30.75
2023-07-17T05:12:55.500Z,30.72
2023-07-17T05:13:55.532Z,30.75
2023-07-17T05:14:55.550Z,30.73
2023-07-17T05:15:55.575Z,30.75
2023-07-17T05:16:55.747Z,30.73
2023-07-17T05:17:55.690Z,30.75
2023-07-17T05:18:55.647Z,30.73
2023-07-17T05:19:55.668Z,30.75
2023-07-17T05:20:55.714Z,30.73
2023-07-17T05:21:55.717Z,30.72
2023-07-17T05:22:55.799Z,30.73
2023-07-17T05:23:55.751Z,30.71
2023-07-17T05:24:55.765Z,30.72
2023-07-17T05:25:55.798Z,30.73
2023-07-17T05:26:55.831Z,30.73
2023-07-17T05:27:55.842Z,30.72
2023-07-17T05:28:55.867Z,30.73
2023-07-17T05:29:55.897Z,30.71
2023-07-17T05:30:55.968Z,30.72
2023-07-17T05:31:55.931Z,30.71
2023-07-17T05:32:56.015Z,30.72
2023-07-17T05:33:56.001Z,30.69
2023-07-17T05:34:56.003Z,30.72
2023-07-17T05:35:56.048Z,30.71
2023-07-17T05:36:56.039Z,30.71
2023-07-17T05:37:56.049Z,30.73
2023-07-17T05:38:56.089Z,30.73
2023-07-17T05:39:56.106Z,30.71
2023-07-17T05:40:56.125Z,30.72
2023-07-17T05:41:56.163Z,30.71
2023-07-17T05:42:56.159Z,30.72
2023-07-17T05:43:56.184Z,30.69
2023-07-17T05:44:56.201Z,30.72
2023-07-17T05:45:56.227Z,30.73
2023-07-17T05:46:56.378Z,30.71
2023-07-17T05:47:56.320Z,30.71
2023-07-17T05:48:56.305Z,30.68
2023-07-17T05:49:56.371Z,30.66
2023-07-17T05:50:56.386Z,30.58
2023-07-17T05:51:56.439Z,30.49
2023-07-17T05:52:56.486Z,30.39
2023-07-17T05:53:56.564Z,30.38
2023-07-17T05:54:57.078Z,30.04
2023-07-17T05:55:56.631Z,29.72
2023-07-17T05:56:56.745Z,29.51
2023-07-17T05:57:56.734Z,29.42
2023-07-17T05:58:56.784Z,29.21
2023-07-17T05:59:56.878Z,29.25
2023-07-17T06:00:56.930Z,29.28
2023-07-17T06:01:56.973Z,29.29
2023-07-17T06:02:57.059Z,29.32
2023-07-17T06:03:57.212Z,29.31
2023-07-17T06:04:57.377Z,29.28
2023-07-17T06:05:57.201Z,29.31
2023-07-17T06:06:57.192Z,29.36
2023-07-17T06:07:57.223Z,29.41
2023-07-17T06:08:57.254Z,29.41
2023-07-17T06:09:57.284Z,29.46
2023-07-17T06:10:57.306Z,29.52
2023-07-17T06:11:57.334Z,29.58
2023-07-17T06:12:57.355Z,29.62
2023-07-17T06:13:57.398Z,29.70
2023-07-17T06:14:57.469Z,29.72
2023-07-17T06:15:57.544Z,29.77
2023-07-17T06:16:57.710Z,29.83
2023-07-17T06:17:57.741Z,29.87
2023-07-17T06:18:57.757Z,29.93
2023-07-17T06:19:57.817Z,30.00
2023-07-17T06:20:57.890Z,30.01
2023-07-17T06:21:58.027Z,30.07
2023-07-17T06:22:58.076Z,30.11
2023-07-17T06:23:58.052Z,30.16
2023-07-17T06:24:58.120Z,30.16
2023-07-17T06:25:58.148Z,30.20
2023-07-17T06:26:58.211Z,30.23
2023-07-17T06:27:58.292Z,30.24
2023-07-17T06:28:58.319Z,30.28
2023-07-17T06:29:58.348Z,30.31
2023-07-17T06:30:58.393Z,30.32
2023-07-17T06:31:58.473Z,30.34
2023-07-17T06:32:58.550Z,30.37
2023-07-17T06:33:58.520Z,30.32
2023-07-17T06:34:58.564Z,30.39
2023-07-17T06:35:58.602Z,30.39
2023-07-17T06:36:58.662Z,30.39
2023-07-17T06:37:58.756Z,30.35
2023-07-17T06:38:58.761Z,30.35
2023-07-17T06:39:58.769Z,30.32
2023-07-17T06:40:58.793Z,30.31
2023-07-17T06:41:58.826Z,30.28
2023-07-17T06:42:58.874Z,30.24
2023-07-17T06:43:58.874Z,30.26
2023-07-17T06:45:01.506Z,30.17
2023-07-17T06:45:58.971Z,30.18
2023-07-17T06:46:58.905Z,30.17
2023-07-17T06:47:58.993Z,30.17
2023-07-17T06:48:58.912Z,30.14
2023-07-17T06:49:58.930Z,30.13
2023-07-17T06:50:58.937Z,30.14
2023-07-17T06:51:58.956Z,30.11
2023-07-17T06:52:58.971Z,30.10
2023-07-17T06:53:59.000Z,30.03
2023-07-17T06:55:03.830Z,30.03
2023-07-17T06:55:58.947Z,29.99
2023-07-17T06:56:58.944Z,29.93
2023-07-17T06:57:58.946Z,29.94
2023-07-17T06:58:58.983Z,29.89
2023-07-17T06:59:58.989Z,29.84
2023-07-17T07:00:58.960Z,29.89
2023-07-17T07:01:59.383Z,29.91
2023-07-17T07:02:59.058Z,29.93
2023-07-17T07:03:59.035Z,29.93
2023-07-17T07:04:58.949Z,29.91
2023-07-17T07:05:58.965Z,29.94
2023-07-17T07:06:58.946Z,29.93
2023-07-17T07:07:58.946Z,29.93
2023-07-17T07:08:58.957Z,29.96
2023-07-17T07:09:59.043Z,29.96
2023-07-17T07:10:58.965Z,29.97
2023-07-17T07:11:58.978Z,29.97
2023-07-17T07:12:59.001Z,30.00
2023-07-17T07:13:58.977Z,29.99
2023-07-17T07:14:58.968Z,29.97
2023-07-17T07:15:59.012Z,29.94
2023-07-17T07:16:59.014Z,29.94
2023-07-17T07:17:59.025Z,29.91
2023-07-17T07:18:58.954Z,29.93
2023-07-17T07:19:58.971Z,29.86
2023-07-17T07:20:58.949Z,29.91
2023-07-17T07:21:58.955Z,29.86
2023-07-17T07:22:58.990Z,29.76
2023-07-17T07:23:58.932Z,29.76
2023-07-17T07:24:58.934Z,29.76
2023-07-17T07:25:58.966Z,29.73
2023-07-17T07:26:58.940Z,29.76
2023-07-17T07:27:58.939Z,29.70
2023-07-17T07:28:58.932Z,29.68
2023-07-17T07:29:58.938Z,29.75
2023-07-17T07:30:58.976Z,29.69
2023-07-17T07:31:58.982Z,29.69
2023-07-17T07:32:58.986Z,29.66
2023-07-17T07:33:58.940Z,29.66
2023-07-17T07:34:58.934Z,29.65
2023-07-17T07:35:58.929Z,29.66
2023-07-17T07:36:58.927Z,29.56
2023-07-17T07:37:58.928Z,29.48
2023-07-17T07:38:58.948Z,29.58
2023-07-17T07:39:58.932Z,29.55
2023-07-17T07:40:58.934Z,29.58
2023-07-17T07:41:58.990Z,29.59
2023-07-17T07:42:58.941Z,29.63
2023-07-17T07:43:58.925Z,29.59
2023-07-17T07:44:58.927Z,29.65
2023-07-17T07:45:58.970Z,29.65
2023-07-17T07:46:58.914Z,29.59
2023-07-17T07:47:58.953Z,29.55
2023-07-17T07:48:58.915Z,29.58
2023-07-17T07:49:58.949Z,29.53
2023-07-17T07:50:58.917Z,29.61
2023-07-17T07:51:58.910Z,29.59
2023-07-17T07:52:58.904Z,29.53
2023-07-17T07:53:58.904Z,29.62
2023-07-17T07:55:00.690Z,29.63
2023-07-17T07:55:58.904Z,29.62
2023-07-17T07:56:58.896Z,29.62
2023-07-17T07:57:59.011Z,29.66
2023-07-17T07:58:58.964Z,29.70
2023-07-17T07:59:58.955Z,29.73
2023-07-17T08:00:58.895Z,29.75
2023-07-17T08:01:58.960Z,29.77
2023-07-17T08:02:58.978Z,29.80
2023-07-17T08:03:58.923Z,29.84
2023-07-17T08:04:58.899Z,29.86
2023-07-17T08:05:58.942Z,29.87
2023-07-17T08:06:58.908Z,29.89
2023-07-17T08:07:58.965Z,29.89
2023-07-17T08:08:58.921Z,29.94
2023-07-17T08:09:58.917Z,29.94
2023-07-17T08:10:58.925Z,29.93
2023-07-17T08:11:58.963Z,29.96
2023-07-17T08:12:58.938Z,29.99
2023-07-17T08:13:58.970Z,30.01
2023-07-17T08:14:58.961Z,30.08
2023-07-17T08:15:58.989Z,30.17
2023-07-17T08:16:58.952Z,30.21
2023-07-17T08:17:59.076Z,30.26
2023-07-17T08:18:58.953Z,30.28
2023-07-17T08:19:58.964Z,30.35
2023-07-17T08:20:58.963Z,30.37
2023-07-17T08:21:58.948Z,30.41
2023-07-17T08:22:59.096Z,30.46
2023-07-17T08:23:58.975Z,30.49
2023-07-17T08:24:58.964Z,30.54
2023-07-17T08:25:59.053Z,30.55
2023-07-17T08:27:57.962Z,30.62
2023-07-17T08:28:58.959Z,30.65
2023-07-17T08:29:58.985Z,30.66
2023-07-17T08:30:59.034Z,30.71
2023-07-17T08:31:59.312Z,30.72
2023-07-17T08:32:59.001Z,30.75
2023-07-17T08:33:58.967Z,30.73
2023-07-17T08:34:58.946Z,30.78
2023-07-17T08:35:58.939Z,30.75
2023-07-17T08:36:58.941Z,30.79
2023-07-17T08:37:58.944Z,30.83
2023-07-17T08:38:58.947Z,30.85
2023-07-17T08:39:58.951Z,30.85
2023-07-17T08:40:58.991Z,30.87
2023-07-17T08:41:58.954Z,30.89
2023-07-17T08:42:58.945Z,30.87
2023-07-17T08:43:58.948Z,30.89
2023-07-17T08:44:58.949Z,30.90
2023-07-17T08:46:01.042Z,30.93
2023-07-17T08:46:58.947Z,30.94
2023-07-17T08:47:59.044Z,30.94
2023-07-17T08:48:58.939Z,30.94
2023-07-17T08:49:58.955Z,30.97
2023-07-17T08:50:58.963Z,30.99
2023-07-17T08:51:58.942Z,31.00
2023-07-17T08:52:58.968Z,31.04
2023-07-17T08:54:13.566Z,31.04
2023-07-17T08:54:58.949Z,31.04
2023-07-17T08:55:58.923Z,31.06
2023-07-17T08:56:58.925Z,31.07
2023-07-17T08:57:58.962Z,31.07
2023-07-17T08:58:58.953Z,31.09
2023-07-17T08:59:59.032Z,31.10
2023-07-17T09:00:58.933Z,31.10
2023-07-17T09:01:58.975Z,31.13
2023-07-17T09:02:58.992Z,31.14
2023-07-17T09:03:58.908Z,31.16
2023-07-17T09:04:58.915Z,31.13
2023-07-17T09:05:58.893Z,31.16
2023-07-17T09:06:58.889Z,31.16
2023-07-17T09:07:58.876Z,31.17
2023-07-17T09:08:58.871Z,31.18
2023-07-17T09:09:58.862Z,31.20
2023-07-17T09:10:58.859Z,31.20
2023-07-17T09:11:58.851Z,31.21
2023-07-17T09:12:58.859Z,31.20
2023-07-17T09:13:58.854Z,31.23
2023-07-17T09:14:58.829Z,31.24
2023-07-17T09:15:58.826Z,31.26
2023-07-17T09:16:58.833Z,31.26
2023-07-17T09:17:58.868Z,31.27
2023-07-17T09:18:58.803Z,31.27
2023-07-17T09:19:58.790Z,31.28
2023-07-17T09:20:58.783Z,31.30
2023-07-17T09:21:58.767Z,31.30
2023-07-17T09:22:58.812Z,31.31
2023-07-17T09:23:58.834Z,31.34
2023-07-17T09:24:58.909Z,31.37
2023-07-17T09:25:58.917Z,31.33
2023-07-17T09:26:58.946Z,31.36
2023-07-17T09:27:58.998Z,31.36
2023-07-17T09:28:59.098Z,31.40
2023-07-17T09:29:59.113Z,31.37
2023-07-17T09:30:59.235Z,31.40
2023-07-17T09:31:59.225Z,31.42
2023-07-17T09:32:59.299Z,31.40
2023-07-17T09:33:59.376Z,31.40
2023-07-17T09:34:59.388Z,31.44
2023-07-17T09:35:59.439Z,31.42
2023-07-17T09:36:59.500Z,31.45
2023-07-17T09:37:59.574Z,31.45
2023-07-17T09:38:59.609Z,31.49
2023-07-17T09:39:59.663Z,31.49
2023-07-17T09:40:59.722Z,31.51
2023-07-17T09:41:59.767Z,31.51
2023-07-17T09:42:59.814Z,31.54
2023-07-17T09:43:59.870Z,31.54
2023-07-17T09:44:59.917Z,31.55
2023-07-17T09:45:59.963Z,31.58
2023-07-17T09:47:00.075Z,31.55
2023-07-17T09:48:00.175Z,31.58
2023-07-17T09:49:00.115Z,31.61
2023-07-17T09:50:00.188Z,31.61
2023-07-17T09:51:00.202Z,31.64
2023-07-17T09:52:00.243Z,31.64
2023-07-17T09:53:00.288Z,31.65
2023-07-17T09:54:00.338Z,31.64
2023-07-17T09:55:00.369Z,31.67
2023-07-17T09:56:00.416Z,31.68
2023-07-17T09:57:00.453Z,31.68
2023-07-17T09:58:00.566Z,31.69
2023-07-17T09:59:00.536Z,31.71
2023-07-17T10:00:00.588Z,31.71
2023-07-17T10:01:00.699Z,31.74
2023-07-17T10:02:00.677Z,31.74
2023-07-17T10:03:00.787Z,31.75
2023-07-17T10:04:00.802Z,31.79
2023-07-17T10:05:00.867Z,31.76
2023-07-17T10:06:00.871Z,31.78
2023-07-17T10:07:00.889Z,31.78
2023-07-17T10:08:00.960Z,31.79
2023-07-17T10:09:00.940Z,31.82
2023-07-17T10:10:00.970Z,31.83
2023-07-17T10:11:01.004Z,31.83
2023-07-17T10:12:01.031Z,31.86
2023-07-17T10:13:01.050Z,31.86
2023-07-17T10:14:01.077Z,31.86
2023-07-17T10:15:01.127Z,31.89
2023-07-17T10:16:01.111Z,31.91
2023-07-17T10:17:01.213Z,31.93
2023-07-17T10:18:01.219Z,31.95
2023-07-17T10:19:01.200Z,31.93
2023-07-17T10:20:01.166Z,31.96
2023-07-17T10:21:01.192Z,31.99
2023-07-17T10:22:01.259Z,31.96
2023-07-17T10:23:01.253Z,31.97
2023-07-17T10:24:01.241Z,31.99
2023-07-17T10:25:01.233Z,32.02
2023-07-17T10:26:01.251Z,32.02
2023-07-17T10:27:01.250Z,32.03
2023-07-17T10:28:01.366Z,32.06
2023-07-17T10:29:01.264Z,32.06
2023-07-17T10:30:01.303Z,32.06
2023-07-17T10:31:01.323Z,32.06
2023-07-17T10:32:01.300Z,32.08
2023-07-17T10:33:01.292Z,32.09
2023-07-17T10:34:01.289Z,32.10
2023-07-17T10:35:01.271Z,32.10
2023-07-17T10:36:01.283Z,32.10
2023-07-17T10:37:01.282Z,32.15
2023-07-17T10:38:01.322Z,32.17
2023-07-17T10:39:01.266Z,32.16
2023-07-17T10:40:01.262Z,32.19
2023-07-17T10:41:01.323Z,32.19
2023-07-17T10:42:01.253Z,32.19
2023-07-17T10:43:01.228Z,32.20
2023-07-17T10:44:17.446Z,32.23
2023-07-17T10:45:01.194Z,32.24
2023-07-17T10:46:01.227Z,32.22
2023-07-17T10:47:01.219Z,32.27
2023-07-17T10:48:01.202Z,32.26
2023-07-17T10:49:01.104Z,32.29
2023-07-17T10:50:01.072Z,32.27
2023-07-17T10:51:01.068Z,32.29
2023-07-17T10:52:01.059Z,32.33
2023-07-17T10:53:01.002Z,32.31
2023-07-17T10:54:01.037Z,32.33
2023-07-17T10:55:00.956Z,32.36
2023-07-17T10:56:00.920Z,32.36
2023-07-17T10:57:00.889Z,32.33
2023-07-17T10:58:00.865Z,32.40
2023-07-17T10:59:00.829Z,32.37
2023-07-17T11:00:00.799Z,32.37
2023-07-17T11:01:00.773Z,32.38
2023-07-17T11:02:00.836Z,32.38
2023-07-17T11:03:00.747Z,32.41
2023-07-17T11:04:00.755Z,32.41
2023-07-17T11:05:00.676Z,32.41
2023-07-17T11:06:00.635Z,32.43
2023-07-17T11:07:00.605Z,32.44
2023-07-17T11:08:00.570Z,32.47
2023-07-17T11:09:00.536Z,32.46
2023-07-17T11:10:00.675Z,32.46
2023-07-17T11:11:00.480Z,32.46
2023-07-17T11:12:00.447Z,32.48
2023-07-17T11:13:00.418Z,32.50
2023-07-17T11:14:00.382Z,32.48
2023-07-17T11:15:00.362Z,32.50
2023-07-17T11:16:00.324Z,32.53
2023-07-17T11:17:00.376Z,32.54
2023-07-17T11:18:00.388Z,32.53
2023-07-17T11:19:00.235Z,32.54
2023-07-17T11:20:00.236Z,32.55
2023-07-17T11:21:00.189Z,32.54
2023-07-17T11:22:00.159Z,32.55
2023-07-17T11:23:00.169Z,32.57
2023-07-17T11:24:00.112Z,32.57
2023-07-17T11:25:00.088Z,32.58
2023-07-17T11:26:00.089Z,32.57
2023-07-17T11:27:00.016Z,32.60
2023-07-17T11:27:59.999Z,32.58
2023-07-17T11:28:59.969Z,32.60
2023-07-17T11:29:59.940Z,32.61
2023-07-17T11:30:59.908Z,32.60
2023-07-17T11:31:59.905Z,32.63
2023-07-17T11:32:59.929Z,32.63
2023-07-17T11:33:59.894Z,32.65
2023-07-17T11:34:59.799Z,32.61
2023-07-17T11:35:59.772Z,32.64
2023-07-17T11:36:59.751Z,32.64
2023-07-17T11:37:59.714Z,32.63
2023-07-17T11:38:59.701Z,32.64
2023-07-17T11:39:59.666Z,32.64
2023-07-17T11:40:59.654Z,32.65
2023-07-17T11:41:59.638Z,32.65
2023-07-17T11:42:59.585Z,32.68
2023-07-17T11:43:59.552Z,32.67
2023-07-17T11:44:59.526Z,32.68
2023-07-17T11:45:59.526Z,32.67
2023-07-17T11:46:59.491Z,32.68
2023-07-17T11:47:59.531Z,32.70
2023-07-17T11:48:59.437Z,32.68
2023-07-17T11:49:59.393Z,32.71
2023-07-17T11:50:59.352Z,32.71
2023-07-17T11:51:59.328Z,32.71
2023-07-17T11:52:59.314Z,32.72
2023-07-17T11:53:59.294Z,32.71
2023-07-17T11:54:59.283Z,32.75
2023-07-17T11:55:59.286Z,32.72
2023-07-17T11:56:59.327Z,32.74
2023-07-17T11:58:04.381Z,32.77
2023-07-17T11:58:59.345Z,32.75
2023-07-17T11:59:59.292Z,32.75
2023-07-17T12:00:59.289Z,32.74
2023-07-17T12:01:59.259Z,32.77
2023-07-17T12:02:59.257Z,32.78
2023-07-17T12:03:59.214Z,32.79
2023-07-17T12:04:59.125Z,32.79
2023-07-17T12:05:59.124Z,32.78
2023-07-17T12:06:59.098Z,32.81
2023-07-17T12:07:59.048Z,32.77
2023-07-17T12:08:59.009Z,32.78
2023-07-17T12:09:59.008Z,32.81
2023-07-17T12:10:58.943Z,32.81
2023-07-17T12:11:58.924Z,32.81
2023-07-17T12:12:58.889Z,32.82
2023-07-17T12:13:58.876Z,32.84
2023-07-17T12:14:58.832Z,32.82
2023-07-17T12:15:58.919Z,32.81
2023-07-17T12:16:58.785Z,32.82
2023-07-17T12:17:58.805Z,32.82
2023-07-17T12:18:58.719Z,32.84
2023-07-17T12:19:58.695Z,32.85
2023-07-17T12:20:58.675Z,32.84
2023-07-17T12:21:58.826Z,32.84
2023-07-17T12:22:58.662Z,32.86
2023-07-17T12:23:58.661Z,32.85
2023-07-17T12:24:58.697Z,32.86
2023-07-17T12:25:58.768Z,32.85
2023-07-17T12:26:59.635Z,32.86
2023-07-17T12:27:58.798Z,32.85
2023-07-17T12:28:58.837Z,32.86
2023-07-17T12:29:58.909Z,32.88
2023-07-17T12:30:58.889Z,32.88
2023-07-17T12:31:59.016Z,32.88
2023-07-17T12:32:59.378Z,32.89
2023-07-17T12:33:58.948Z,32.89
2023-07-17T12:34:58.878Z,32.91
2023-07-17T12:35:58.852Z,32.89
2023-07-17T12:36:58.817Z,32.91
2023-07-17T12:37:58.831Z,32.91
2023-07-17T12:38:59.323Z,32.92
2023-07-17T12:39:58.724Z,32.92
2023-07-17T12:40:58.690Z,32.92
2023-07-17T12:41:58.659Z,32.91
2023-07-17T12:42:58.624Z,32.92
2023-07-17T12:43:58.616Z,32.92
2023-07-17T12:44:58.590Z,32.95
2023-07-17T12:45:58.605Z,32.94
2023-07-17T12:46:58.531Z,32.94
2023-07-17T12:47:58.579Z,32.95
2023-07-17T12:48:58.463Z,32.97
2023-07-17T12:49:58.449Z,32.97
2023-07-17T12:50:59.486Z,32.95
2023-07-17T12:51:58.378Z,32.97
2023-07-17T12:52:58.348Z,32.95
2023-07-17T12:53:58.337Z,32.97